Terminal Aerodrome Forecast
Issued by NWS Greer, SC

Current Version | Previous Version | Text Only | Print | Product List | Glossary On
Versions: 1 2 3 4 5 6 7 8 9 10 11 12 13 14 15 16 17 18 19 20 21 22 23 24 25 26 27 28 29 30
000
FTUS42 KGSP 030018 AAA
TAFCLT
TAF AMD
KCLT 030018Z 0300/0324 17006KT P6SM SCT025 BKN140 OVC250
      TEMPO 0303/0307 -TSRA OVC025CB
     FM030700 19008KT 6SM BR VCSH OVC008
     FM031300 22007G16KT P6SM BKN045 PROB30 0316/0322 4SM -TSRA
      OVC025CB=

USA.gov is the U.S. government's official web portal to all federal, state and local government web resources and services.